x

Settlement Point, Gbi (spgf1) Weather Station

8:00pm - Tue 29th Jul 2014 All times are EDT. -4 hours from GMT.

  • Wind
    15mph, 17mph gusts
  • Air Temp 85°f
  • Sea Pressure 1015.4mb
  • Settlement Point, Gbi
  • Settlement Point, Gbi

More Historic Weather Station data

Upgrade to MSW Pro to gain access to the past 30 days of data for over 8000 Wavebouys and Weather Stations around the globe.

Join Pro

Comparision Forecast

View Surf forecast
   
Tue 07/29 8:00pm 15 17 mph 1015.4mb 85f
7:00pm 13 14 mph 1015.5mb 85f
6:00pm 13 14 mph 1015.4mb 86f
5:00pm 14 15 mph 1015.4mb 85f
4:00pm 13 15 mph 1015.5mb 85f
3:00pm 14 15 mph 1016mb 85f
2:00pm 11 13 mph 1016.7mb 85f
1:00pm 11 13 mph 1017mb 85f
12:00pm 11 13 mph 1017.2mb 84f
11:00am 13 15 mph 1017.4mb 84f
10:00am 14 16 mph 1017.1mb 84f
9:00am 16 18 mph 1016.4mb 83f
8:00am 16 17 mph 1016.1mb 83f
7:00am 17 20 mph 1016.2mb 84f
6:00am 20 21 mph 1015.4mb 84f
5:00am 21 23 mph 1014.8mb 84f
4:00am 18 21 mph 1014.9mb 85f
3:00am 21 23 mph 1015.5mb 85f
2:00am 20 22 mph 1016.1mb 85f
1:00am 16 18 mph 1017.3mb 86f
12:00am 17 20 mph 1017.3mb 85f
Mon 07/28 11:00pm 16 18 mph 1017.6mb 85f
10:00pm 13 16 mph 1017.3mb 85f
9:00pm 11 13 mph 1017.1mb 85f
8:00pm 8 13 mph 1016.9mb 85f
7:00pm 10 13 mph 1016.8mb 85f
6:00pm 8 10 mph 1016.8mb 86f
5:00pm 7 8 mph 1017.2mb 85f
4:00pm 9 10 mph 1017.6mb 85f
3:00pm 8 10 mph 1018mb 85f
2:00pm 9 11 mph 1018.7mb 84f
1:00pm 9 10 mph 1019.1mb 84f
12:00pm 11 14 mph 1019.2mb 84f
11:00am 11 13 mph 1019.3mb 84f
10:00am 10 11 mph 1019.3mb 84f
9:00am 14 15 mph 1019.4mb 84f
8:00am 15 17 mph 1019.2mb 85f
7:00am 15 17 mph 1018.5mb 85f
6:00am 14 16 mph 1018.1mb 85f
5:00am 15 16 mph 1017.7mb 85f
4:00am 15 17 mph 1018.1mb 85f
3:00am 15 17 mph 1018.3mb 85f
2:00am 15 17 mph 1019.1mb 85f
1:00am 14 15 mph 1019.6mb 84f
12:00am 11 14 mph 1019.6mb 85f
Sun 07/27 11:00pm 10 11 mph 1019.3mb 85f
10:00pm 9 10 mph 1019.4mb 85f
9:00pm 9 10 mph 1018.8mb 84f
8:00pm 10 11 mph 1018.8mb 85f
7:00pm 8 9 mph 1019.1mb 85f
6:00pm 8 9 mph 1019mb 86f
5:00pm 8 9 mph 1019mb 85f
4:00pm 8 9 mph 1019mb 85f
3:00pm 11 14 mph 1019.3mb 85f
2:00pm 10 11 mph 1019.9mb 85f
1:00pm 8
mph
1020.4mb 85f
12:00pm 8 9 mph 1020.6mb 85f
11:00am 7 8 mph 1020.6mb 84f
10:00am 9 10 mph 1020.4mb 85f
9:00am 8 9 mph 1020.1mb 85f
8:00am 8 9 mph 1020mb 84f
7:00am 10 11 mph 1019.4mb 84f
6:00am 9 10 mph 1019mb 84f
5:00am 9 10 mph 1018.6mb 84f
4:00am 8 10 mph 1018.8mb 84f
3:00am 8 9 mph 1018.9mb 84f
2:00am 10 13 mph 1019.5mb 84f
1:00am 13 15 mph 1019.5mb 83f
12:00am 11 14 mph 1019.5mb 84f
Sat 07/26 11:00pm 7 8 mph 1019.7mb 83f
10:00pm 6 7 mph 1019.7mb 83f
9:00pm 5
mph
1019.9mb 84f
8:00pm 8 9 mph 1019.6mb 85f
7:00pm 9 11 mph 1019.1mb 85f
6:00pm 13 15 mph 1018.6mb 85f
5:00pm 7 11 mph 1019mb 86f
4:00pm 7 8 mph 1020mb 85f
3:00pm 8 10 mph 1020mb 85f
2:00pm 9 11 mph 1020.4mb 85f
1:00pm 10 13 mph 1020.6mb 85f
12:00pm 9 11 mph 1020.3mb 85f
11:00am 10 11 mph 1020.6mb 85f
10:00am 9 10 mph 1020.2mb 85f
9:00am 9 10 mph 1020.2mb 85f
8:00am 9 11 mph 1019.5mb 84f
7:00am 9 11 mph 1019.1mb 83f
6:00am 9 10 mph 1018.7mb 83f
5:00am 9 13 mph 1018.4mb 83f
4:00am 10 13 mph 1018.4mb 83f
3:00am 14 16 mph 1018.4mb 83f
2:00am 13 15 mph 1018.9mb 83f